createdAt,value
2022-08-29T00:01:06.912Z,98.54
2022-08-29T00:03:40.915Z,98.13
2022-08-29T00:06:14.194Z,97.53
2022-08-29T00:08:48.639Z,97.94
2022-08-29T00:11:22.389Z,98.14
2022-08-29T00:13:55.476Z,98.79
2022-08-29T00:16:28.617Z,98.32
2022-08-29T00:19:01.783Z,98.33
2022-08-29T00:21:35.014Z,98.31
2022-08-29T00:24:09.494Z,98.26
2022-08-29T00:26:42.579Z,98.43
2022-08-29T00:29:15.660Z,98.78
2022-08-29T00:31:48.758Z,99.16
2022-08-29T00:34:22.140Z,98.14
2022-08-29T00:36:55.217Z,97.70
2022-08-29T00:39:29.796Z,97.28
2022-08-29T00:42:06.880Z,97.50
2022-08-29T00:44:39.975Z,97.77
2022-08-29T00:47:18.443Z,98.09
2022-08-29T00:49:57.173Z,98.51
2022-08-29T00:52:35.432Z,98.93
2022-08-29T00:55:15.947Z,99.07
2022-08-29T00:57:56.162Z,98.27
2022-08-29T01:00:29.785Z,98.81
2022-08-29T01:03:04.618Z,99.74
2022-08-29T01:05:38.134Z,99.89
2022-08-29T01:08:11.265Z,99.45
2022-08-29T01:11:03.773Z,99.47
2022-08-29T01:13:42.917Z,99.80
2022-08-29T01:16:18.452Z,99.61
2022-08-29T01:18:58.371Z,99.57
2022-08-29T01:21:39.627Z,99.97
2022-08-29T01:24:27.452Z,99.71
2022-08-29T01:27:00.591Z,99.34
2022-08-29T01:29:33.892Z,99.79
2022-08-29T01:32:07.647Z,99.13
2022-08-29T01:34:41.233Z,99.05
2022-08-29T01:37:17.037Z,99.20
2022-08-29T01:39:51.484Z,99.29
2022-08-29T01:42:25.900Z,99.08
2022-08-29T01:45:02.856Z,99.02
2022-08-29T01:47:36.795Z,99.51
2022-08-29T01:50:14.393Z,99.29
2022-08-29T01:52:47.603Z,99.54
2022-08-29T01:55:22.202Z,99.35
2022-08-29T01:57:55.335Z,99.63
2022-08-29T02:00:28.938Z,99.46
2022-08-29T02:03:03.757Z,99.24
2022-08-29T02:05:36.811Z,99.26
2022-08-29T02:08:09.839Z,99.20
2022-08-29T02:10:44.298Z,99.32
2022-08-29T02:13:17.350Z,98.52
2022-08-29T02:15:50.430Z,98.83
2022-08-29T02:18:23.596Z,98.72
2022-08-29T02:20:56.691Z,98.63
2022-08-29T02:23:31.356Z,98.77
2022-08-29T02:26:06.394Z,98.95
2022-08-29T02:28:41.453Z,99.25
2022-08-29T02:31:16.448Z,99.12
2022-08-29T02:33:50.063Z,99.25
2022-08-29T02:36:24.043Z,99.37
2022-08-29T02:38:59.158Z,99.46
2022-08-29T02:41:33.971Z,99.78
2022-08-29T02:44:07.321Z,99.45
2022-08-29T02:46:40.548Z,99.60
2022-08-29T02:49:14.163Z,100.00
2022-08-29T02:51:47.264Z,99.87
2022-08-29T02:54:20.299Z,99.35
2022-08-29T02:56:54.719Z,99.25
2022-08-29T02:59:28.425Z,99.40
2022-08-29T03:02:01.756Z,99.29
2022-08-29T03:04:34.907Z,100.00
2022-08-29T03:07:07.962Z,99.89
2022-08-29T03:09:41.083Z,99.49
2022-08-29T03:12:15.465Z,99.72
2022-08-29T03:14:48.527Z,99.57
2022-08-29T03:17:21.565Z,100.00
2022-08-29T03:19:54.661Z,100.00
2022-08-29T03:22:28.419Z,100.00
2022-08-29T03:25:02.918Z,100.00
2022-08-29T03:27:37.569Z,100.00
2022-08-29T03:30:14.991Z,100.00
2022-08-29T03:32:48.355Z,99.39
2022-08-29T03:35:22.503Z,99.61
2022-08-29T03:37:56.995Z,99.31
2022-08-29T03:40:30.157Z,99.24
2022-08-29T03:43:04.671Z,99.79
2022-08-29T03:45:38.369Z,100.00
2022-08-29T03:48:11.513Z,100.00
2022-08-29T03:50:44.715Z,100.00
2022-08-29T03:53:18.292Z,100.00
2022-08-29T03:55:53.132Z,100.00
2022-08-29T03:58:27.558Z,100.00
2022-08-29T04:01:00.937Z,100.00
2022-08-29T04:03:34.183Z,100.00
2022-08-29T04:06:07.867Z,100.00
2022-08-29T04:08:40.957Z,100.00
2022-08-29T04:11:15.287Z,100.00
2022-08-29T04:13:50.073Z,100.00
2022-08-29T04:16:30.837Z,100.00
2022-08-29T04:19:04.338Z,100.00
2022-08-29T04:21:41.952Z,100.00
2022-08-29T04:24:15.229Z,100.00
2022-08-29T04:26:48.399Z,100.00
2022-08-29T04:29:22.797Z,100.00
2022-08-29T04:31:55.900Z,100.00
2022-08-29T04:34:28.958Z,100.00
2022-08-29T04:37:02.033Z,100.00
2022-08-29T04:39:35.701Z,100.00
2022-08-29T04:42:08.875Z,100.00
2022-08-29T04:44:43.365Z,100.00
2022-08-29T04:47:16.712Z,99.03
2022-08-29T04:49:55.400Z,97.23
2022-08-29T04:52:29.433Z,97.08
2022-08-29T04:55:02.841Z,96.92
2022-08-29T04:57:36.270Z,97.41
2022-08-29T05:00:16.449Z,98.23
2022-08-29T05:02:49.853Z,98.98
2022-08-29T05:05:23.085Z,98.78
2022-08-29T05:07:56.157Z,98.91
2022-08-29T05:10:29.208Z,98.83
2022-08-29T05:13:02.315Z,99.74
2022-08-29T05:15:39.237Z,99.71
2022-08-29T05:18:13.318Z,99.59
2022-08-29T05:20:49.541Z,100.00
2022-08-29T05:23:22.625Z,100.00
2022-08-29T05:25:58.321Z,99.04
2022-08-29T05:28:34.529Z,98.10
2022-08-29T05:31:13.763Z,95.84
2022-08-29T05:33:47.187Z,94.53
2022-08-29T05:36:20.278Z,94.14
2022-08-29T05:38:53.363Z,91.62
2022-08-29T05:41:26.790Z,89.77
2022-08-29T05:43:59.987Z,87.93
2022-08-29T05:46:34.467Z,86.91
2022-08-29T05:49:07.611Z,84.39
2022-08-29T05:51:40.740Z,83.85
2022-08-29T05:54:13.863Z,82.39
2022-08-29T05:56:47.154Z,80.96
2022-08-29T05:59:20.758Z,79.04
2022-08-29T06:01:55.251Z,76.41
2022-08-29T06:04:28.753Z,74.57
2022-08-29T06:07:02.012Z,73.06
2022-08-29T06:09:36.368Z,72.27
2022-08-29T06:12:11.315Z,71.18
2022-08-29T06:14:50.687Z,70.65
2022-08-29T06:17:25.370Z,71.38
2022-08-29T06:19:58.565Z,68.52
2022-08-29T06:22:31.629Z,69.47
2022-08-29T06:25:27.986Z,68.09
2022-08-29T06:27:59.813Z,66.86
2022-08-29T06:30:34.378Z,66.44
2022-08-29T06:33:10.066Z,64.30
2022-08-29T06:35:43.129Z,64.86
2022-08-29T06:38:16.647Z,64.86
2022-08-29T06:40:50.001Z,64.39
2022-08-29T06:43:23.811Z,66.24
2022-08-29T06:45:56.949Z,65.34
2022-08-29T06:48:31.793Z,64.87
2022-08-29T06:51:05.570Z,64.27
2022-08-29T06:53:38.874Z,64.57
2022-08-29T06:56:12.209Z,62.83
2022-08-29T06:58:45.317Z,63.47
2022-08-29T07:01:21.255Z,62.16
2022-08-29T07:03:57.776Z,60.79
2022-08-29T07:06:32.102Z,58.80
2022-08-29T07:09:06.691Z,60.29
2022-08-29T07:11:42.278Z,59.21
2022-08-29T07:14:15.614Z,58.40
2022-08-29T07:16:48.862Z,57.34
2022-08-29T07:19:23.370Z,57.61
2022-08-29T07:21:58.954Z,59.03
2022-08-29T07:24:32.521Z,57.83
2022-08-29T07:27:05.780Z,56.80
2022-08-29T07:29:39.713Z,54.28
2022-08-29T07:32:12.789Z,53.72
2022-08-29T07:34:47.241Z,54.26
2022-08-29T07:37:20.330Z,55.26
2022-08-29T07:39:53.715Z,56.25
2022-08-29T07:42:27.889Z,55.95
2022-08-29T07:45:01.113Z,56.99
2022-08-29T07:47:34.671Z,57.52
2022-08-29T07:50:12.599Z,56.61
2022-08-29T07:52:47.707Z,54.91
2022-08-29T07:55:22.880Z,55.88
2022-08-29T07:57:56.043Z,57.63
2022-08-29T08:00:29.233Z,56.23
2022-08-29T08:03:02.415Z,54.82
2022-08-29T08:05:37.565Z,54.60
2022-08-29T08:08:15.215Z,55.93
2022-08-29T08:10:51.997Z,54.96
2022-08-29T08:13:25.914Z,54.18
2022-08-29T08:15:59.077Z,54.84
2022-08-29T08:18:32.199Z,52.57
2022-08-29T08:21:07.268Z,53.02
2022-08-29T08:23:41.230Z,52.34
2022-08-29T08:26:15.533Z,52.53
2022-08-29T08:28:49.239Z,54.63
2022-08-29T08:31:22.818Z,51.60
2022-08-29T08:33:56.243Z,52.88
2022-08-29T08:36:34.530Z,52.23
2022-08-29T08:39:09.798Z,51.20
2022-08-29T08:41:53.607Z,51.73
2022-08-29T08:45:04.813Z,49.79
2022-08-29T08:47:44.592Z,50.59
2022-08-29T08:50:45.099Z,50.83
2022-08-29T08:53:27.516Z,51.08
2022-08-29T08:56:07.222Z,49.96
2022-08-29T08:58:53.338Z,49.19
2022-08-29T09:01:33.756Z,48.64
2022-08-29T09:04:39.812Z,48.45
2022-08-29T09:07:39.786Z,48.71
2022-08-29T09:10:32.170Z,47.50
2022-08-29T09:13:19.497Z,48.88
2022-08-29T09:16:00.971Z,47.00
2022-08-29T09:18:40.709Z,47.11
2022-08-29T09:22:32.713Z,48.90
2022-08-29T09:25:10.589Z,49.14
2022-08-29T09:27:49.822Z,48.25
2022-08-29T09:30:28.830Z,46.98
2022-08-29T09:33:09.285Z,46.73
2022-08-29T09:35:47.190Z,45.82
2022-08-29T09:38:25.239Z,46.14
2022-08-29T09:41:03.475Z,48.00
2022-08-29T09:43:52.843Z,46.69
2022-08-29T09:46:28.483Z,47.54
2022-08-29T09:49:16.547Z,46.17
2022-08-29T09:51:52.814Z,45.21
2022-08-29T09:54:32.474Z,45.07
2022-08-29T09:57:15.480Z,44.86
2022-08-29T10:00:12.220Z,44.14
2022-08-29T10:02:49.851Z,42.92
2022-08-29T10:05:44.653Z,43.47
2022-08-29T10:08:35.529Z,43.43
2022-08-29T10:11:23.952Z,42.34
2022-08-29T10:14:04.162Z,42.36
2022-08-29T10:16:48.430Z,43.25
2022-08-29T10:19:33.160Z,42.61
2022-08-29T10:25:10.379Z,43.04
2022-08-29T10:27:55.675Z,41.20
2022-08-29T10:30:38.422Z,42.76
2022-08-29T10:33:26.722Z,42.35
2022-08-29T10:36:08.342Z,40.41
2022-08-29T10:38:49.941Z,41.41
2022-08-29T10:41:36.100Z,41.13
2022-08-29T10:44:27.471Z,42.16
2022-08-29T10:47:30.817Z,40.88
2022-08-29T10:50:46.353Z,41.97
2022-08-29T10:53:26.817Z,43.09
2022-08-29T10:56:07.040Z,43.19
2022-08-29T10:58:57.869Z,42.78
2022-08-29T11:01:38.061Z,42.90
2022-08-29T11:04:19.566Z,41.99
2022-08-29T11:07:04.660Z,42.24
2022-08-29T11:09:45.004Z,42.21
2022-08-29T11:12:34.823Z,41.25
2022-08-29T11:15:19.323Z,42.26
2022-08-29T11:18:03.653Z,42.26
2022-08-29T11:20:46.224Z,41.67
2022-08-29T11:23:32.995Z,43.94
2022-08-29T11:26:21.279Z,44.25
2022-08-29T11:29:04.135Z,43.58
2022-08-29T11:31:52.359Z,43.43
2022-08-29T11:34:46.478Z,41.27
2022-08-29T11:38:19.817Z,40.84
2022-08-29T11:41:30.813Z,40.77
2022-08-29T11:44:23.371Z,40.63
2022-08-29T11:46:59.290Z,39.41
2022-08-29T11:49:44.215Z,40.44
2022-08-29T11:52:31.433Z,41.49
2022-08-29T11:55:33.218Z,40.74
2022-08-29T11:58:46.961Z,40.28
2022-08-29T12:02:00.817Z,39.89
2022-08-29T12:04:58.767Z,40.68
2022-08-29T12:07:41.978Z,39.50
2022-08-29T12:10:30.639Z,38.83
2022-08-29T12:13:08.955Z,39.27
2022-08-29T12:16:10.845Z,39.00
2022-08-29T12:18:52.682Z,38.65
2022-08-29T12:21:51.900Z,38.09
2022-08-29T12:24:57.179Z,38.79
2022-08-29T12:28:03.149Z,37.38
2022-08-29T12:30:43.638Z,38.20
2022-08-29T12:33:36.845Z,39.32
2022-08-29T12:36:29.029Z,39.71
2022-08-29T12:39:23.731Z,40.84
2022-08-29T12:42:16.038Z,39.87
2022-08-29T12:45:00.653Z,39.90
2022-08-29T12:47:42.878Z,39.87
2022-08-29T12:50:23.711Z,40.65
2022-08-29T12:53:04.377Z,39.72
2022-08-29T12:55:43.467Z,40.35
2022-08-29T12:58:36.130Z,39.99
2022-08-29T13:01:23.580Z,40.59
2022-08-29T13:04:03.620Z,41.25
2022-08-29T13:06:49.876Z,41.48
2022-08-29T13:09:32.698Z,42.33
2022-08-29T13:12:13.567Z,41.88
2022-08-29T13:15:00.155Z,42.36
2022-08-29T13:17:36.795Z,42.98
2022-08-29T13:20:45.890Z,42.33
2022-08-29T13:23:26.302Z,42.15
2022-08-29T13:26:03.942Z,43.32
2022-08-29T13:28:44.004Z,43.43
2022-08-29T13:31:30.139Z,43.39
2022-08-29T13:34:20.791Z,42.65
2022-08-29T13:37:29.930Z,43.11
2022-08-29T13:40:41.158Z,42.30
2022-08-29T13:43:36.069Z,43.00
2022-08-29T13:46:19.493Z,42.37
2022-08-29T13:49:00.651Z,41.50
2022-08-29T13:51:33.914Z,42.11
2022-08-29T13:54:07.144Z,40.70
2022-08-29T13:56:42.684Z,41.69
2022-08-29T13:59:25.867Z,41.50
2022-08-29T14:02:09.392Z,41.58
2022-08-29T14:04:47.927Z,39.95
2022-08-29T14:07:26.917Z,40.46
2022-08-29T14:10:01.172Z,39.26
2022-08-29T14:12:35.618Z,40.33
2022-08-29T14:15:12.396Z,39.88
2022-08-29T14:17:48.404Z,38.50
2022-08-29T14:20:21.879Z,38.95
2022-08-29T14:22:55.103Z,39.60
2022-08-29T14:25:28.216Z,39.35
2022-08-29T14:28:02.723Z,39.26
2022-08-29T14:30:35.845Z,38.61
2022-08-29T14:33:09.140Z,38.80
2022-08-29T14:35:42.489Z,40.19
2022-08-29T14:38:16.761Z,39.55
2022-08-29T14:40:50.012Z,39.47
2022-08-29T14:43:24.694Z,39.25
2022-08-29T14:45:57.977Z,39.58
2022-08-29T14:48:31.073Z,38.98
2022-08-29T14:51:04.569Z,38.92
2022-08-29T14:53:53.155Z,38.56
2022-08-29T14:56:47.572Z,38.18
2022-08-29T14:59:25.492Z,37.85
2022-08-29T15:01:58.761Z,38.29
2022-08-29T15:04:36.593Z,38.82
2022-08-29T15:07:14.142Z,37.66
2022-08-29T15:09:47.458Z,37.11
2022-08-29T15:12:21.643Z,37.37
2022-08-29T15:14:56.233Z,38.17
2022-08-29T15:17:29.400Z,39.16
2022-08-29T15:22:56.190Z,39.87
2022-08-29T15:25:29.413Z,38.92
2022-08-29T15:28:02.711Z,40.43
2022-08-29T15:30:37.169Z,41.38
2022-08-29T15:33:10.311Z,40.23
2022-08-29T15:35:43.592Z,40.75
2022-08-29T15:38:16.948Z,41.45
2022-08-29T15:40:50.255Z,41.50
2022-08-29T15:43:23.407Z,42.58
2022-08-29T15:45:59.863Z,42.16
2022-08-29T15:48:33.506Z,41.91
2022-08-29T15:51:06.730Z,42.50
2022-08-29T15:53:40.714Z,42.57
2022-08-29T15:56:13.909Z,43.82
2022-08-29T15:58:48.286Z,43.21
2022-08-29T16:01:22.800Z,43.35
2022-08-29T16:03:55.987Z,43.26
2022-08-29T16:06:29.091Z,43.37
2022-08-29T16:09:03.072Z,43.63
2022-08-29T16:11:52.994Z,42.63
2022-08-29T16:14:58.144Z,42.88
2022-08-29T16:17:20.978Z,43.46
2022-08-29T16:19:54.841Z,43.00
2022-08-29T16:22:28.713Z,42.92
2022-08-29T16:25:01.837Z,43.28
2022-08-29T16:27:35.367Z,43.40
2022-08-29T16:30:10.955Z,43.64
2022-08-29T16:32:45.504Z,44.13
2022-08-29T16:35:20.668Z,44.80
2022-08-29T16:38:02.519Z,45.15
2022-08-29T16:40:36.020Z,45.00
2022-08-29T16:43:09.194Z,45.40
2022-08-29T16:45:42.345Z,45.85
2022-08-29T16:48:17.943Z,45.87
2022-08-29T16:50:51.559Z,45.93
2022-08-29T16:53:24.863Z,46.15
2022-08-29T16:55:58.229Z,46.49
2022-08-29T16:58:49.227Z,46.94
2022-08-29T17:01:23.023Z,46.43
2022-08-29T17:03:57.897Z,46.80
2022-08-29T17:06:31.794Z,46.61
2022-08-29T17:09:08.542Z,47.03
2022-08-29T17:11:41.849Z,47.19
2022-08-29T17:14:15.466Z,47.47
2022-08-29T17:16:52.061Z,47.79
2022-08-29T17:19:27.972Z,48.07
2022-08-29T17:22:04.032Z,47.75
2022-08-29T17:24:37.069Z,48.28
2022-08-29T17:27:11.145Z,48.23
2022-08-29T17:29:47.159Z,48.30
2022-08-29T17:32:20.273Z,48.59
2022-08-29T17:34:54.726Z,48.97
2022-08-29T17:37:27.916Z,48.37
2022-08-29T17:40:13.233Z,48.93
2022-08-29T17:42:49.295Z,49.40
2022-08-29T17:45:22.750Z,49.81
2022-08-29T17:47:56.594Z,50.42
2022-08-29T17:50:31.785Z,51.03
2022-08-29T17:53:05.675Z,52.12
2022-08-29T17:55:38.978Z,52.64
2022-08-29T17:58:12.142Z,53.35
2022-08-29T18:00:45.571Z,53.48
2022-08-29T18:03:19.484Z,53.85
2022-08-29T18:05:53.910Z,54.20
2022-08-29T18:08:27.002Z,55.09
2022-08-29T18:11:00.143Z,55.98
2022-08-29T18:13:33.889Z,56.54
2022-08-29T18:16:07.446Z,57.12
2022-08-29T18:18:42.019Z,58.32
2022-08-29T18:21:18.595Z,59.72
2022-08-29T18:23:51.888Z,60.51
2022-08-29T18:26:26.245Z,60.76
2022-08-29T18:28:59.449Z,61.42
2022-08-29T18:31:32.802Z,62.23
2022-08-29T18:34:07.242Z,62.86
2022-08-29T18:36:44.919Z,63.76
2022-08-29T18:39:18.975Z,64.41
2022-08-29T18:41:53.103Z,65.00
2022-08-29T18:44:26.339Z,65.46
2022-08-29T18:46:59.456Z,66.68
2022-08-29T18:49:50.316Z,66.89
2022-08-29T18:52:26.955Z,67.86
2022-08-29T18:55:00.105Z,67.48
2022-08-29T18:57:33.671Z,67.88
2022-08-29T19:00:10.458Z,68.27
2022-08-29T19:02:43.799Z,69.32
2022-08-29T19:05:18.418Z,69.56
2022-08-29T19:07:53.362Z,70.37
2022-08-29T19:10:29.062Z,70.26
2022-08-29T19:13:02.748Z,70.29
2022-08-29T19:15:41.322Z,70.54
2022-08-29T19:18:16.041Z,71.03
2022-08-29T19:21:12.162Z,71.29
2022-08-29T19:23:52.191Z,71.97
2022-08-29T19:26:30.799Z,72.64
2022-08-29T19:29:12.404Z,73.39
2022-08-29T19:31:46.341Z,73.30
2022-08-29T19:34:19.447Z,73.51
2022-08-29T19:36:52.622Z,73.19
2022-08-29T19:39:27.288Z,73.99
2022-08-29T19:42:00.796Z,74.97
2022-08-29T19:44:34.368Z,74.69
2022-08-29T19:47:07.804Z,74.68
2022-08-29T19:49:45.404Z,75.33
2022-08-29T19:52:18.938Z,75.55
2022-08-29T19:54:56.036Z,75.94
2022-08-29T19:57:29.141Z,75.12
2022-08-29T20:00:03.178Z,75.43
2022-08-29T20:02:37.155Z,75.40
2022-08-29T20:05:12.328Z,75.95
2022-08-29T20:07:46.618Z,76.72
2022-08-29T20:10:24.982Z,77.01
2022-08-29T20:12:59.073Z,77.35
2022-08-29T20:15:32.345Z,76.87
2022-08-29T20:18:06.157Z,77.29
2022-08-29T20:20:39.289Z,76.46
2022-08-29T20:23:13.127Z,76.58
2022-08-29T20:25:47.712Z,76.62
2022-08-29T20:28:20.815Z,76.81
2022-08-29T20:30:54.456Z,77.08
2022-08-29T20:33:27.753Z,77.07
2022-08-29T20:36:20.335Z,77.27
2022-08-29T20:38:55.287Z,77.92
2022-08-29T20:41:29.761Z,78.10
2022-08-29T20:44:07.065Z,78.30
2022-08-29T20:46:42.072Z,78.83
2022-08-29T20:49:20.035Z,79.70
2022-08-29T20:51:53.771Z,79.59
2022-08-29T20:54:26.931Z,79.79
2022-08-29T20:57:01.655Z,79.86
2022-08-29T20:59:39.255Z,79.44
2022-08-29T21:02:13.915Z,79.13
2022-08-29T21:05:04.583Z,79.36
2022-08-29T21:07:37.663Z,79.39
2022-08-29T21:10:11.104Z,79.82
2022-08-29T21:12:45.519Z,80.70
2022-08-29T21:15:18.711Z,81.05
2022-08-29T21:17:51.812Z,80.74
2022-08-29T21:20:24.974Z,81.23
2022-08-29T21:23:00.666Z,81.25
2022-08-29T21:25:33.985Z,81.30
2022-08-29T21:28:09.522Z,81.04
2022-08-29T21:30:45.611Z,80.88
2022-08-29T21:33:19.578Z,81.19
2022-08-29T21:35:52.675Z,81.06
2022-08-29T21:38:25.722Z,81.18
2022-08-29T21:40:59.016Z,80.53
2022-08-29T21:43:33.446Z,80.00
2022-08-29T21:46:16.103Z,80.03
2022-08-29T21:48:56.374Z,80.00
2022-08-29T21:51:31.708Z,80.63
2022-08-29T21:54:10.276Z,81.08
2022-08-29T21:56:46.523Z,81.12
2022-08-29T21:59:21.879Z,80.83
2022-08-29T22:01:55.360Z,81.36
2022-08-29T22:04:29.450Z,81.33
2022-08-29T22:07:02.817Z,81.59
2022-08-29T22:09:36.726Z,81.71
2022-08-29T22:12:10.093Z,81.34
2022-08-29T22:15:01.897Z,81.76
2022-08-29T22:17:35.686Z,82.23
2022-08-29T22:20:10.260Z,82.70
2022-08-29T22:22:43.373Z,82.80
2022-08-29T22:25:16.786Z,83.20
2022-08-29T22:27:49.905Z,83.69
2022-08-29T22:30:32.111Z,83.46
2022-08-29T22:33:07.013Z,83.68
2022-08-29T22:35:42.407Z,83.72
2022-08-29T22:38:15.562Z,83.84
2022-08-29T22:40:49.303Z,84.26
2022-08-29T22:43:22.719Z,84.13
2022-08-29T22:45:57.156Z,83.93
2022-08-29T22:48:30.236Z,84.17
2022-08-29T22:51:03.314Z,84.54
2022-08-29T22:53:36.426Z,84.83
2022-08-29T22:56:09.887Z,84.45
2022-08-29T22:58:42.957Z,84.36
2022-08-29T23:01:17.476Z,84.65
2022-08-29T23:03:50.714Z,84.54
2022-08-29T23:06:24.343Z,84.82
2022-08-29T23:08:58.326Z,85.33
2022-08-29T23:11:31.441Z,85.77
2022-08-29T23:14:05.407Z,85.24
2022-08-29T23:16:41.135Z,85.23
2022-08-29T23:19:14.463Z,85.08
2022-08-29T23:21:49.452Z,85.61
2022-08-29T23:24:26.195Z,85.34
2022-08-29T23:26:59.675Z,85.72
2022-08-29T23:29:34.073Z,85.22
2022-08-29T23:32:16.194Z,83.87
2022-08-29T23:34:49.304Z,84.21
2022-08-29T23:37:22.414Z,84.52
2022-08-29T23:39:55.549Z,85.07
2022-08-29T23:42:29.322Z,85.14
2022-08-29T23:45:02.402Z,85.09
2022-08-29T23:47:36.839Z,85.62
2022-08-29T23:50:12.865Z,86.25
2022-08-29T23:52:46.383Z,86.30
2022-08-29T23:55:20.115Z,86.23
2022-08-29T23:57:53.252Z,86.90
